sensor_id;sensor_type;location;lat;lon;timestamp;pressure;altitude;pressure_sealevel;temperature;humidity
34124;BME280;13153;52.316;21.166;2023-04-30T00:01:00;100098.94;;;16.30;48.20
34124;BME280;13153;52.316;21.166;2023-04-30T00:03:25;100103.38;;;16.32;47.70
34124;BME280;13153;52.316;21.166;2023-04-30T00:05:51;100106.91;;;16.36;47.92
34124;BME280;13153;52.316;21.166;2023-04-30T00:08:17;100101.59;;;16.37;47.74
34124;BME280;13153;52.316;21.166;2023-04-30T00:10:43;100103.38;;;16.29;47.98
34124;BME280;13153;52.316;21.166;2023-04-30T00:13:09;100106.03;;;16.31;48.13
34124;BME280;13153;52.316;21.166;2023-04-30T00:15:35;100109.56;;;16.37;48.40
34124;BME280;13153;52.316;21.166;2023-04-30T00:18:01;100098.03;;;16.46;48.59
34124;BME280;13153;52.316;21.166;2023-04-30T00:20:27;100107.78;;;16.48;48.80
34124;BME280;13153;52.316;21.166;2023-04-30T00:22:53;100105.13;;;16.48;48.91
34124;BME280;13153;52.316;21.166;2023-04-30T00:25:19;100112.19;;;16.46;49.15
34124;BME280;13153;52.316;21.166;2023-04-30T00:27:45;100106.88;;;16.48;49.25
34124;BME280;13153;52.316;21.166;2023-04-30T00:30:11;100106.88;;;16.49;49.38
34124;BME280;13153;52.316;21.166;2023-04-30T00:32:37;100106.88;;;16.49;49.40
34124;BME280;13153;52.316;21.166;2023-04-30T00:35:03;100110.41;;;16.50;49.33
34124;BME280;13153;52.316;21.166;2023-04-30T00:37:29;100106.00;;;16.49;49.75
34124;BME280;13153;52.316;21.166;2023-04-30T00:39:55;100115.72;;;16.51;50.38
34124;BME280;13153;52.316;21.166;2023-04-30T00:42:21;100116.63;;;16.52;49.62
34124;BME280;13153;52.316;21.166;2023-04-30T00:44:46;100114.84;;;16.52;49.80
34124;BME280;13153;52.316;21.166;2023-04-30T00:47:12;100119.28;;;16.54;50.69
34124;BME280;13153;52.316;21.166;2023-04-30T00:49:38;100121.03;;;16.53;50.68
34124;BME280;13153;52.316;21.166;2023-04-30T00:52:04;100119.28;;;16.57;51.00
34124;BME280;13153;52.316;21.166;2023-04-30T00:54:30;100124.59;;;16.55;51.19
34124;BME280;13153;52.316;21.166;2023-04-30T00:56:57;100121.94;;;16.57;51.04
34124;BME280;13153;52.316;21.166;2023-04-30T00:59:24;100115.72;;;16.56;51.16
34124;BME280;13153;52.316;21.166;2023-04-30T01:01:51;100113.06;;;16.55;50.65
34124;BME280;13153;52.316;21.166;2023-04-30T01:04:17;100115.72;;;16.56;50.68
34124;BME280;13153;52.316;21.166;2023-04-30T01:06:42;100122.81;;;16.57;50.81
34124;BME280;13153;52.316;21.166;2023-04-30T01:09:09;100117.50;;;16.57;51.32
34124;BME280;13153;52.316;21.166;2023-04-30T01:14:24;100123.69;;;16.55;50.49
34124;BME280;13153;52.316;21.166;2023-04-30T01:19:46;100123.69;;;16.56;51.13
34124;BME280;13153;52.316;21.166;2023-04-30T01:22:50;100125.47;;;16.59;50.77
34124;BME280;13153;52.316;21.166;2023-04-30T01:28:13;100122.81;;;16.56;51.10
34124;BME280;13153;52.316;21.166;2023-04-30T01:30:41;100127.22;;;16.58;51.31
34124;BME280;13153;52.316;21.166;2023-04-30T01:33:10;100119.28;;;16.55;51.00
34124;BME280;13153;52.316;21.166;2023-04-30T01:36:20;100126.34;;;16.56;51.19
34124;BME280;13153;52.316;21.166;2023-04-30T01:42:17;100135.22;;;16.54;51.81
34124;BME280;13153;52.316;21.166;2023-04-30T01:47:42;100144.94;;;16.55;52.08
34124;BME280;13153;52.316;21.166;2023-04-30T01:53:05;100143.19;;;16.52;52.56
34124;BME280;13153;52.316;21.166;2023-04-30T01:55:50;100139.63;;;16.51;52.42
34124;BME280;13153;52.316;21.166;2023-04-30T01:58:23;100144.06;;;16.49;52.74
34124;BME280;13153;52.316;21.166;2023-04-30T02:00:49;100144.94;;;16.50;52.64
34124;BME280;13153;52.316;21.166;2023-04-30T02:03:15;100144.06;;;16.49;52.26
34124;BME280;13153;52.316;21.166;2023-04-30T02:05:41;100143.19;;;16.47;52.17
34124;BME280;13153;52.316;21.166;2023-04-30T02:08:07;100144.06;;;16.49;52.16
34124;BME280;13153;52.316;21.166;2023-04-30T02:10:32;100140.53;;;16.47;52.77
34124;BME280;13153;52.316;21.166;2023-04-30T02:12:58;100150.28;;;16.45;52.41
34124;BME280;13153;52.316;21.166;2023-04-30T02:15:24;100150.25;;;16.48;52.06
34124;BME280;13153;52.316;21.166;2023-04-30T02:17:50;100152.03;;;16.52;51.65
34124;BME280;13153;52.316;21.166;2023-04-30T02:20:16;100143.19;;;16.54;51.62
34124;BME280;13153;52.316;21.166;2023-04-30T02:22:42;100150.25;;;16.53;52.10
34124;BME280;13153;52.316;21.166;2023-04-30T02:25:08;100160.00;;;16.52;52.80
34124;BME280;13153;52.316;21.166;2023-04-30T02:27:35;100154.69;;;16.54;52.75
34124;BME280;13153;52.316;21.166;2023-04-30T02:30:01;100153.81;;;16.54;52.52
34124;BME280;13153;52.316;21.166;2023-04-30T02:32:28;100155.56;;;16.55;52.50
34124;BME280;13153;52.316;21.166;2023-04-30T02:34:55;100159.09;;;16.57;52.63
34124;BME280;13153;52.316;21.166;2023-04-30T02:37:21;100167.09;;;16.57;53.41
34124;BME280;13153;52.316;21.166;2023-04-30T02:39:47;100163.53;;;16.58;53.66
34124;BME280;13153;52.316;21.166;2023-04-30T02:42:13;100168.84;;;16.64;54.36
34124;BME280;13153;52.316;21.166;2023-04-30T02:44:39;100170.63;;;16.68;54.76
34124;BME280;13153;52.316;21.166;2023-04-30T02:47:05;100176.84;;;16.68;54.85
34124;BME280;13153;52.316;21.166;2023-04-30T02:49:30;100170.63;;;16.72;55.51
34124;BME280;13153;52.316;21.166;2023-04-30T02:51:56;100174.13;;;16.76;55.65
34124;BME280;13153;52.316;21.166;2023-04-30T02:54:22;100179.44;;;16.79;55.82
34124;BME280;13153;52.316;21.166;2023-04-30T02:56:48;100177.66;;;16.81;56.00
34124;BME280;13153;52.316;21.166;2023-04-30T02:59:14;100178.56;;;16.83;56.29
34124;BME280;13153;52.316;21.166;2023-04-30T03:01:39;100182.97;;;16.86;56.46
34124;BME280;13153;52.316;21.166;2023-04-30T03:04:05;100191.84;;;16.86;56.59
34124;BME280;13153;52.316;21.166;2023-04-30T03:06:32;100190.06;;;16.90;56.63
34124;BME280;13153;52.316;21.166;2023-04-30T03:08:59;100196.25;;;16.87;56.56
34124;BME280;13153;52.316;21.166;2023-04-30T03:11:25;100201.56;;;16.90;56.49
34124;BME280;13153;52.316;21.166;2023-04-30T03:13:51;100197.13;;;16.92;56.54
34124;BME280;13153;52.316;21.166;2023-04-30T03:16:20;100206.88;;;16.93;56.43
34124;BME280;13153;52.316;21.166;2023-04-30T03:18:49;100217.50;;;16.93;56.29
34124;BME280;13153;52.316;21.166;2023-04-30T03:21:15;100213.97;;;16.93;55.97
34124;BME280;13153;52.316;21.166;2023-04-30T03:23:40;100215.75;;;16.92;56.17
34124;BME280;13153;52.316;21.166;2023-04-30T03:26:06;100222.81;;;16.93;56.07
34124;BME280;13153;52.316;21.166;2023-04-30T03:28:33;100215.75;;;16.89;56.29
34124;BME280;13153;52.316;21.166;2023-04-30T03:31:00;100222.84;;;16.90;56.10
34124;BME280;13153;52.316;21.166;2023-04-30T03:33:30;100233.47;;;16.89;55.72
34124;BME280;13153;52.316;21.166;2023-04-30T03:35:56;100228.16;;;16.86;55.83
34124;BME280;13153;52.316;21.166;2023-04-30T03:38:22;100233.47;;;16.81;55.69
34124;BME280;13153;52.316;21.166;2023-04-30T03:40:48;100249.41;;;16.81;55.11
34124;BME280;13153;52.316;21.166;2023-04-30T03:43:14;100253.00;;;16.71;54.94
34124;BME280;13153;52.316;21.166;2023-04-30T03:45:39;100254.78;;;16.69;55.10
34124;BME280;13153;52.316;21.166;2023-04-30T03:48:05;100260.97;;;16.69;54.81
34124;BME280;13153;52.316;21.166;2023-04-30T03:50:31;100267.16;;;16.68;54.53
34124;BME280;13153;52.316;21.166;2023-04-30T03:52:57;100269.78;;;16.64;53.41
34124;BME280;13153;52.316;21.166;2023-04-30T03:55:23;100276.00;;;16.60;52.37
34124;BME280;13153;52.316;21.166;2023-04-30T03:57:49;100272.44;;;16.55;51.09
34124;BME280;13153;52.316;21.166;2023-04-30T04:00:15;100277.75;;;16.48;50.11
34124;BME280;13153;52.316;21.166;2023-04-30T04:02:41;100279.53;;;16.45;49.88
34124;BME280;13153;52.316;21.166;2023-04-30T04:05:07;100285.69;;;16.35;49.47
34124;BME280;13153;52.316;21.166;2023-04-30T04:07:33;100286.56;;;16.29;49.01
34124;BME280;13153;52.316;21.166;2023-04-30T04:09:59;100290.97;;;16.21;47.90
34124;BME280;13153;52.316;21.166;2023-04-30T04:12:25;100290.13;;;16.14;47.36
34124;BME280;13153;52.316;21.166;2023-04-30T04:14:51;100298.97;;;16.15;47.22
34124;BME280;13153;52.316;21.166;2023-04-30T04:17:17;100308.69;;;16.14;47.15
34124;BME280;13153;52.316;21.166;2023-04-30T04:19:43;100307.78;;;16.09;46.92
34124;BME280;13153;52.316;21.166;2023-04-30T04:22:09;100314.84;;;16.04;46.93
34124;BME280;13153;52.316;21.166;2023-04-30T04:24:34;100313.09;;;16.06;47.36
34124;BME280;13153;52.316;21.166;2023-04-30T04:27:01;100314.88;;;16.09;48.08
34124;BME280;13153;52.316;21.166;2023-04-30T04:29:30;100324.59;;;16.11;48.39
34124;BME280;13153;52.316;21.166;2023-04-30T04:31:56;100328.16;;;16.10;48.24
34124;BME280;13153;52.316;21.166;2023-04-30T04:34:22;100334.34;;;16.14;48.20
34124;BME280;13153;52.316;21.166;2023-04-30T04:36:48;100344.09;;;16.15;48.63
34124;BME280;13153;52.316;21.166;2023-04-30T04:39:13;100337.00;;;16.14;49.49
34124;BME280;13153;52.316;21.166;2023-04-30T04:41:39;100339.66;;;16.17;49.43
34124;BME280;13153;52.316;21.166;2023-04-30T04:44:06;100352.03;;;16.21;49.89
34124;BME280;13153;52.316;21.166;2023-04-30T04:46:34;100355.59;;;16.23;49.18
34124;BME280;13153;52.316;21.166;2023-04-30T04:49:03;100356.47;;;16.24;49.29
34124;BME280;13153;52.316;21.166;2023-04-30T04:51:29;100353.81;;;16.24;49.06
34124;BME280;13153;52.316;21.166;2023-04-30T04:53:54;100360.03;;;16.24;49.13
34124;BME280;13153;52.316;21.166;2023-04-30T04:56:20;100363.53;;;16.22;48.66
34124;BME280;13153;52.316;21.166;2023-04-30T04:58:46;100374.16;;;16.23;48.28
34124;BME280;13153;52.316;21.166;2023-04-30T05:01:12;100373.28;;;16.24;48.14
34124;BME280;13153;52.316;21.166;2023-04-30T05:03:38;100383.03;;;16.27;47.74
34124;BME280;13153;52.316;21.166;2023-04-30T05:06:04;100380.38;;;16.27;47.55
34124;BME280;13153;52.316;21.166;2023-04-30T05:08:30;100390.13;;;16.31;48.04
34124;BME280;13153;52.316;21.166;2023-04-30T05:10:56;100390.13;;;16.32;47.71
34124;BME280;13153;52.316;21.166;2023-04-30T05:13:22;100391.91;;;16.35;47.66
34124;BME280;13153;52.316;21.166;2023-04-30T05:15:52;100393.69;;;16.37;47.58
34124;BME280;13153;52.316;21.166;2023-04-30T05:18:19;100397.25;;;16.41;47.45
34124;BME280;13153;52.316;21.166;2023-04-30T05:20:45;100406.13;;;16.46;47.08
34124;BME280;13153;52.316;21.166;2023-04-30T05:23:11;100406.13;;;16.54;47.50
34124;BME280;13153;52.316;21.166;2023-04-30T05:25:37;100412.34;;;16.56;47.34
34124;BME280;13153;52.316;21.166;2023-04-30T05:28:03;100420.31;;;16.57;46.80
34124;BME280;13153;52.316;21.166;2023-04-30T05:30:29;100424.75;;;16.60;47.30
34124;BME280;13153;52.316;21.166;2023-04-30T05:32:56;100429.19;;;16.62;47.41
34124;BME280;13153;52.316;21.166;2023-04-30T05:35:23;100432.78;;;16.72;47.83
34124;BME280;13153;52.316;21.166;2023-04-30T05:37:49;100426.56;;;16.79;47.87
34124;BME280;13153;52.316;21.166;2023-04-30T05:40:15;100432.78;;;16.89;47.63
34124;BME280;13153;52.316;21.166;2023-04-30T05:42:42;100431.94;;;16.97;47.05
34124;BME280;13153;52.316;21.166;2023-04-30T05:45:11;100437.25;;;17.08;47.35
34124;BME280;13153;52.316;21.166;2023-04-30T05:47:39;100436.38;;;17.20;47.11
34124;BME280;13153;52.316;21.166;2023-04-30T05:50:06;100445.25;;;17.26;46.57
34124;BME280;13153;52.316;21.166;2023-04-30T05:52:32;100448.78;;;17.27;46.44
34124;BME280;13153;52.316;21.166;2023-04-30T05:54:58;100450.56;;;17.28;45.50
34124;BME280;13153;52.316;21.166;2023-04-30T05:57:24;100447.03;;;17.30;45.46
34124;BME280;13153;52.316;21.166;2023-04-30T05:59:49;100448.81;;;17.33;44.84
34124;BME280;13153;52.316;21.166;2023-04-30T06:02:15;100458.53;;;17.40;45.11
34124;BME280;13153;52.316;21.166;2023-04-30T06:04:41;100454.97;;;17.41;44.31
34124;BME280;13153;52.316;21.166;2023-04-30T06:07:07;100467.38;;;17.43;44.91
34124;BME280;13153;52.316;21.166;2023-04-30T06:09:33;100461.19;;;17.50;44.70
34124;BME280;13153;52.316;21.166;2023-04-30T06:11:59;100472.72;;;17.53;43.42
34124;BME280;13153;52.316;21.166;2023-04-30T06:14:25;100473.59;;;17.50;43.86
34124;BME280;13153;52.316;21.166;2023-04-30T06:16:51;100467.38;;;17.49;43.32
34124;BME280;13153;52.316;21.166;2023-04-30T06:19:16;100473.59;;;17.55;43.34
34124;BME280;13153;52.316;21.166;2023-04-30T06:21:42;100483.38;;;17.89;43.48
34124;BME280;13153;52.316;21.166;2023-04-30T06:24:08;100480.44;;;18.62;40.77
34124;BME280;13153;52.316;21.166;2023-04-30T06:26:35;100480.97;;;19.24;38.43
34124;BME280;13153;52.316;21.166;2023-04-30T06:29:01;100490.28;;;19.79;37.24
34124;BME280;13153;52.316;21.166;2023-04-30T06:31:27;100483.50;;;20.29;36.55
34124;BME280;13153;52.316;21.166;2023-04-30T06:33:53;100478.66;;;20.66;34.59
34124;BME280;13153;52.316;21.166;2023-04-30T06:36:19;100485.41;;;20.92;34.56
34124;BME280;13153;52.316;21.166;2023-04-30T06:38:48;100489.28;;;21.32;33.53
34124;BME280;13153;52.316;21.166;2023-04-30T06:41:14;100483.63;;;23.65;31.40
34124;BME280;13153;52.316;21.166;2023-04-30T06:43:42;100490.72;;;27.00;25.63
34124;BME280;13153;52.316;21.166;2023-04-30T06:46:07;100482.44;;;29.09;22.86
34124;BME280;13153;52.316;21.166;2023-04-30T06:48:33;100497.34;;;31.07;20.34
34124;BME280;13153;52.316;21.166;2023-04-30T06:50:59;100491.69;;;32.03;19.13
34124;BME280;13153;52.316;21.166;2023-04-30T06:53:25;100488.59;;;32.68;18.90
34124;BME280;13153;52.316;21.166;2023-04-30T06:55:51;100492.06;;;33.54;18.35
34124;BME280;13153;52.316;21.166;2023-04-30T06:58:17;100494.53;;;34.10;17.59
34124;BME280;13153;52.316;21.166;2023-04-30T07:00:44;100496.56;;;34.34;17.49
34124;BME280;13153;52.316;21.166;2023-04-30T07:03:10;100501.16;;;34.84;16.86
34124;BME280;13153;52.316;21.166;2023-04-30T07:05:36;100505.91;;;35.19;17.13
34124;BME280;13153;52.316;21.166;2023-04-30T07:08:03;100515.53;;;35.61;16.85
34124;BME280;13153;52.316;21.166;2023-04-30T07:10:29;100505.16;;;36.12;15.50
34124;BME280;13153;52.316;21.166;2023-04-30T07:12:56;100517.03;;;36.24;15.52
34124;BME280;13153;52.316;21.166;2023-04-30T07:15:22;100510.56;;;36.25;16.00
34124;BME280;13153;52.316;21.166;2023-04-30T07:17:48;100515.13;;;36.37;15.50
34124;BME280;13153;52.316;21.166;2023-04-30T07:20:14;100523.00;;;36.18;15.18
34124;BME280;13153;52.316;21.166;2023-04-30T07:22:41;100523.28;;;36.26;14.93
34124;BME280;13153;52.316;21.166;2023-04-30T07:25:15;100521.72;;;36.11;14.96
34124;BME280;13153;52.316;21.166;2023-04-30T07:27:41;100524.19;;;35.55;15.06
34124;BME280;13153;52.316;21.166;2023-04-30T07:30:07;100530.13;;;34.99;16.34
34124;BME280;13153;52.316;21.166;2023-04-30T07:32:36;100524.09;;;35.07;17.05
34124;BME280;13153;52.316;21.166;2023-04-30T07:35:03;100521.47;;;35.05;17.16
34124;BME280;13153;52.316;21.166;2023-04-30T07:37:29;100525.19;;;35.17;16.79
34124;BME280;13153;52.316;21.166;2023-04-30T07:39:55;100522.16;;;34.96;17.15
34124;BME280;13153;52.316;21.166;2023-04-30T07:42:21;100537.91;;;34.93;17.05
34124;BME280;13153;52.316;21.166;2023-04-30T07:44:47;100532.53;;;34.91;16.68
34124;BME280;13153;52.316;21.166;2023-04-30T07:47:13;100535.72;;;34.60;17.16
34124;BME280;13153;52.316;21.166;2023-04-30T07:49:39;100535.44;;;34.25;17.36
34124;BME280;13153;52.316;21.166;2023-04-30T07:52:05;100529.72;;;34.02;17.22
34124;BME280;13153;52.316;21.166;2023-04-30T07:54:35;100538.16;;;33.31;16.32
34124;BME280;13153;52.316;21.166;2023-04-30T07:57:04;100536.78;;;32.67;17.64
34124;BME280;13153;52.316;21.166;2023-04-30T07:59:30;100535.75;;;31.64;17.64
34124;BME280;13153;52.316;21.166;2023-04-30T08:01:56;100526.00;;;30.97;18.63
34124;BME280;13153;52.316;21.166;2023-04-30T08:04:22;100532.81;;;30.38;19.64
34124;BME280;13153;52.316;21.166;2023-04-30T08:06:48;100534.38;;;29.73;19.96
34124;BME280;13153;52.316;21.166;2023-04-30T08:09:14;100538.38;;;29.10;21.04
34124;BME280;13153;52.316;21.166;2023-04-30T08:11:41;100531.53;;;28.43;21.13
34124;BME280;13153;52.316;21.166;2023-04-30T08:14:07;100532.00;;;28.12;22.77
34124;BME280;13153;52.316;21.166;2023-04-30T08:16:32;100539.31;;;27.88;24.33
34124;BME280;13153;52.316;21.166;2023-04-30T08:18:58;100536.63;;;27.88;23.92
34124;BME280;13153;52.316;21.166;2023-04-30T08:21:25;100538.06;;;27.75;22.19
34124;BME280;13153;52.316;21.166;2023-04-30T08:23:53;100534.88;;;27.44;23.62
34124;BME280;13153;52.316;21.166;2023-04-30T08:26:19;100537.47;;;27.23;23.93
34124;BME280;13153;52.316;21.166;2023-04-30T08:28:45;100541.75;;;27.07;23.47
34124;BME280;13153;52.316;21.166;2023-04-30T08:31:12;100546.41;;;26.79;24.63
34124;BME280;13153;52.316;21.166;2023-04-30T08:33:37;100543.22;;;26.44;24.65
34124;BME280;13153;52.316;21.166;2023-04-30T08:36:04;100541.09;;;26.27;24.36
34124;BME280;13153;52.316;21.166;2023-04-30T08:38:29;100540.75;;;26.12;24.03
34124;BME280;13153;52.316;21.166;2023-04-30T08:41:11;100540.63;;;26.15;24.49
34124;BME280;13153;52.316;21.166;2023-04-30T08:43:39;100549.28;;;25.99;25.15
34124;BME280;13153;52.316;21.166;2023-04-30T08:46:06;100555.56;;;25.74;25.17
34124;BME280;13153;52.316;21.166;2023-04-30T08:48:31;100563.69;;;25.72;25.06
34124;BME280;13153;52.316;21.166;2023-04-30T08:51:02;100553.88;;;25.70;26.18
34124;BME280;13153;52.316;21.166;2023-04-30T08:53:35;100555.28;;;25.53;25.03
34124;BME280;13153;52.316;21.166;2023-04-30T08:56:04;100562.63;;;25.48;26.10
34124;BME280;13153;52.316;21.166;2023-04-30T08:58:30;100562.94;;;25.39;25.63
34124;BME280;13153;52.316;21.166;2023-04-30T09:01:00;100567.69;;;25.31;25.98
34124;BME280;13153;52.316;21.166;2023-04-30T09:03:26;100571.31;;;25.30;26.49
34124;BME280;13153;52.316;21.166;2023-04-30T09:05:54;100565.41;;;25.45;26.44
34124;BME280;13153;52.316;21.166;2023-04-30T09:08:43;100568.16;;;25.44;25.81
34124;BME280;13153;52.316;21.166;2023-04-30T09:11:26;100564.81;;;25.37;26.78
34124;BME280;13153;52.316;21.166;2023-04-30T09:13:56;100581.91;;;25.36;26.26
34124;BME280;13153;52.316;21.166;2023-04-30T09:16:24;100573.19;;;25.28;25.67
34124;BME280;13153;52.316;21.166;2023-04-30T09:18:51;100565.69;;;25.08;25.67
34124;BME280;13153;52.316;21.166;2023-04-30T09:21:34;100576.03;;;24.91;25.80
34124;BME280;13153;52.316;21.166;2023-04-30T09:24:02;100577.63;;;24.68;25.10
34124;BME280;13153;52.316;21.166;2023-04-30T09:26:34;100585.09;;;24.57;26.67
34124;BME280;13153;52.316;21.166;2023-04-30T09:29:01;100589.53;;;24.60;26.14
34124;BME280;13153;52.316;21.166;2023-04-30T09:31:33;100576.47;;;24.45;23.83
34124;BME280;13153;52.316;21.166;2023-04-30T09:33:59;100594.97;;;24.24;25.36
34124;BME280;13153;52.316;21.166;2023-04-30T09:36:25;100583.72;;;24.09;25.70
34124;BME280;13153;52.316;21.166;2023-04-30T09:38:52;100589.28;;;24.01;24.58
34124;BME280;13153;52.316;21.166;2023-04-30T09:41:24;100586.31;;;23.76;23.67
34124;BME280;13153;52.316;21.166;2023-04-30T09:43:52;100590.31;;;23.60;23.81
34124;BME280;13153;52.316;21.166;2023-04-30T09:46:19;100594.97;;;23.50;25.43
34124;BME280;13153;52.316;21.166;2023-04-30T09:48:48;100594.41;;;23.36;24.83
34124;BME280;13153;52.316;21.166;2023-04-30T09:51:20;100588.34;;;23.26;22.39
34124;BME280;13153;52.316;21.166;2023-04-30T09:53:46;100598.84;;;22.98;22.02
34124;BME280;13153;52.316;21.166;2023-04-30T09:56:19;100595.56;;;22.83;24.76
34124;BME280;13153;52.316;21.166;2023-04-30T09:58:53;100595.63;;;22.78;22.99
34124;BME280;13153;52.316;21.166;2023-04-30T10:01:22;100602.94;;;22.70;24.25
34124;BME280;13153;52.316;21.166;2023-04-30T10:03:51;100594.88;;;22.71;24.53
34124;BME280;13153;52.316;21.166;2023-04-30T10:06:20;100599.50;;;22.63;22.65
34124;BME280;13153;52.316;21.166;2023-04-30T10:08:51;100597.97;;;22.52;23.02
34124;BME280;13153;52.316;21.166;2023-04-30T10:11:20;100598.00;;;22.50;23.85
34124;BME280;13153;52.316;21.166;2023-04-30T10:14:02;100590.03;;;22.46;23.67
34124;BME280;13153;52.316;21.166;2023-04-30T10:19:13;100598.72;;;22.09;22.86
34124;BME280;13153;52.316;21.166;2023-04-30T10:21:41;100602.41;;;22.02;23.34
34124;BME280;13153;52.316;21.166;2023-04-30T10:24:11;100601.59;;;21.95;23.47
34124;BME280;13153;52.316;21.166;2023-04-30T10:26:37;100598.06;;;21.95;24.75
34124;BME280;13153;52.316;21.166;2023-04-30T10:29:06;100596.31;;;21.92;24.77
34124;BME280;13153;52.316;21.166;2023-04-30T10:31:32;100597.28;;;21.88;22.93
34124;BME280;13153;52.316;21.166;2023-04-30T10:34:45;100596.41;;;21.88;23.20
34124;BME280;13153;52.316;21.166;2023-04-30T10:37:35;100600.00;;;21.85;22.59
34124;BME280;13153;52.316;21.166;2023-04-30T10:40:03;100601.94;;;21.75;22.38
34124;BME280;13153;52.316;21.166;2023-04-30T10:42:29;100601.22;;;21.66;22.71
34124;BME280;13153;52.316;21.166;2023-04-30T10:44:56;100597.56;;;21.70;24.68
34124;BME280;13153;52.316;21.166;2023-04-30T10:47:28;100597.91;;;21.47;23.16
34124;BME280;13153;52.316;21.166;2023-04-30T10:50:07;100602.47;;;21.40;24.22
34124;BME280;13153;52.316;21.166;2023-04-30T10:52:33;100594.38;;;21.45;25.60
34124;BME280;13153;52.316;21.166;2023-04-30T10:55:07;100597.81;;;21.53;25.85
34124;BME280;13153;52.316;21.166;2023-04-30T10:57:41;100595.13;;;21.55;24.79
34124;BME280;13153;52.316;21.166;2023-04-30T11:03:11;100600.56;;;21.49;25.25
34124;BME280;13153;52.316;21.166;2023-04-30T11:05:38;100589.88;;;21.47;24.95
34124;BME280;13153;52.316;21.166;2023-04-30T11:08:10;100589.91;;;21.46;25.95
34124;BME280;13153;52.316;21.166;2023-04-30T11:10:36;100601.69;;;21.35;24.31
34124;BME280;13153;52.316;21.166;2023-04-30T11:13:06;100599.97;;;21.30;24.97
34124;BME280;13153;52.316;21.166;2023-04-30T11:15:40;100600.94;;;21.24;25.59
34124;BME280;13153;52.316;21.166;2023-04-30T11:18:07;100601.88;;;21.22;25.37
34124;BME280;13153;52.316;21.166;2023-04-30T11:20:49;100607.22;;;21.19;24.25
34124;BME280;13153;52.316;21.166;2023-04-30T11:23:24;100606.31;;;21.20;24.42
34124;BME280;13153;52.316;21.166;2023-04-30T11:25:54;100616.13;;;21.24;25.33
34124;BME280;13153;52.316;21.166;2023-04-30T11:28:26;100610.75;;;21.24;23.66
34124;BME280;13153;52.316;21.166;2023-04-30T11:30:53;100617.91;;;21.20;24.41
34124;BME280;13153;52.316;21.166;2023-04-30T11:33:20;100613.47;;;21.18;23.57
34124;BME280;13153;52.316;21.166;2023-04-30T11:35:48;100609.97;;;21.14;23.86
34124;BME280;13153;52.316;21.166;2023-04-30T11:38:49;100612.84;;;20.97;23.42
34124;BME280;13153;52.316;21.166;2023-04-30T11:41:16;100620.13;;;20.85;24.62
34124;BME280;13153;52.316;21.166;2023-04-30T11:43:45;100615.03;;;20.65;23.94
34124;BME280;13153;52.316;21.166;2023-04-30T11:46:15;100620.44;;;20.59;24.77
34124;BME280;13153;52.316;21.166;2023-04-30T11:48:44;100623.16;;;20.54;23.49
34124;BME280;13153;52.316;21.166;2023-04-30T11:51:21;100619.09;;;20.14;23.46
34124;BME280;13153;52.316;21.166;2023-04-30T11:53:50;100623.59;;;20.07;24.27
34124;BME280;13153;52.316;21.166;2023-04-30T11:56:18;100626.22;;;20.13;25.29
34124;BME280;13153;52.316;21.166;2023-04-30T11:58:46;100624.31;;;20.23;25.76
34124;BME280;13153;52.316;21.166;2023-04-30T12:01:12;100622.50;;;20.26;25.60
34124;BME280;13153;52.316;21.166;2023-04-30T12:03:45;100628.66;;;20.37;25.61
34124;BME280;13153;52.316;21.166;2023-04-30T12:06:23;100628.66;;;20.37;24.90
34124;BME280;13153;52.316;21.166;2023-04-30T12:08:55;100624.16;;;20.46;25.12
34124;BME280;13153;52.316;21.166;2023-04-30T12:11:27;100625.84;;;20.53;26.18
34124;BME280;13153;52.316;21.166;2023-04-30T12:14:06;100628.50;;;20.56;24.60
34124;BME280;13153;52.316;21.166;2023-04-30T12:16:44;100634.75;;;20.55;24.28
34124;BME280;13153;52.316;21.166;2023-04-30T12:19:12;100630.31;;;20.54;24.41
34124;BME280;13153;52.316;21.166;2023-04-30T12:21:40;100639.19;;;20.56;23.73
34124;BME280;13153;52.316;21.166;2023-04-30T12:24:06;100629.56;;;20.38;23.84
34124;BME280;13153;52.316;21.166;2023-04-30T12:26:40;100634.91;;;20.35;24.29
34124;BME280;13153;52.316;21.166;2023-04-30T12:29:16;100621.53;;;20.39;25.70
34124;BME280;13153;52.316;21.166;2023-04-30T12:31:43;100622.41;;;20.41;25.01
34124;BME280;13153;52.316;21.166;2023-04-30T12:34:14;100634.03;;;20.31;23.64
34124;BME280;13153;52.316;21.166;2023-04-30T12:36:41;100623.34;;;20.31;24.33
34124;BME280;13153;52.316;21.166;2023-04-30T12:39:09;100621.63;;;20.26;24.05
34124;BME280;13153;52.316;21.166;2023-04-30T12:41:47;100634.03;;;20.34;25.73
34124;BME280;13153;52.316;21.166;2023-04-30T12:44:23;100637.56;;;20.35;24.44
34124;BME280;13153;52.316;21.166;2023-04-30T12:46:55;100619.91;;;20.22;23.55
34124;BME280;13153;52.316;21.166;2023-04-30T12:49:35;100630.63;;;20.19;23.56
34124;BME280;13153;52.316;21.166;2023-04-30T12:52:08;100622.53;;;20.25;24.22
34124;BME280;13153;52.316;21.166;2023-04-30T12:54:35;100620.72;;;20.27;25.34
34124;BME280;13153;52.316;21.166;2023-04-30T12:57:09;100629.56;;;20.33;25.19
34124;BME280;13153;52.316;21.166;2023-04-30T12:59:57;100618.97;;;20.24;24.17
34124;BME280;13153;52.316;21.166;2023-04-30T13:02:26;100616.41;;;20.14;24.25
34124;BME280;13153;52.316;21.166;2023-04-30T13:04:53;100623.72;;;19.92;23.10
34124;BME280;13153;52.316;21.166;2023-04-30T13:07:19;100621.91;;;19.95;23.29
34124;BME280;13153;52.316;21.166;2023-04-30T13:09:46;100620.16;;;19.93;23.72